Time;durP1;ratioP1;P1;durP2;ratioP2;P2;SDS_P1;SDS_P2;PMS_P1;PMS_P2;Temp;Humidity;BMP_temperature;BMP_pressure;BME280_temperature;BME280_humidity;BME280_pressure;Samples;Min_cycle;Max_cycle;Signal;HPM_P1;HPM_P2
2023/08/07 00:01:31;;;;;;;11.43;1.30;;;13.80;99.90;;;;;;5010080;28;20025;-71
2023/08/07 00:03:56;;;;;;;7.43;1.67;;;13.90;99.90;;;;;;5020102;28;20085;-71
2023/08/07 00:06:22;;;;;;;9.35;1.30;;;13.90;99.90;;;;;;5005640;28;20124;-72
2023/08/07 00:08:47;;;;;;;9.82;1.33;;;13.90;99.90;;;;;;5026101;28;20041;-72
2023/08/07 00:11:13;;;;;;;6.97;1.27;;;13.80;99.90;;;;;;5023241;28;20686;-72
2023/08/07 00:13:38;;;;;;;9.05;1.05;;;13.90;99.90;;;;;;5026867;28;20475;-72
2023/08/07 00:16:04;;;;;;;8.38;1.00;;;13.80;99.90;;;;;;5028059;28;20060;-71
2023/08/07 00:18:30;;;;;;;4.38;0.73;;;13.80;99.90;;;;;;5012907;28;20802;-72
2023/08/07 00:20:55;;;;;;;5.22;0.90;;;13.90;99.90;;;;;;5026316;28;20076;-71
2023/08/07 00:23:21;;;;;;;7.25;0.95;;;13.90;99.90;;;;;;5027028;28;20030;-73
2023/08/07 00:25:47;;;;;;;6.68;1.42;;;13.90;99.90;;;;;;5025112;28;20029;-71
2023/08/07 00:28:12;;;;;;;4.55;0.60;;;13.90;99.90;;;;;;5026424;28;20025;-72
2023/08/07 00:30:38;;;;;;;4.95;0.95;;;13.90;99.90;;;;;;5024754;28;20397;-71
2023/08/07 00:33:03;;;;;;;2.25;0.90;;;13.90;99.90;;;;;;5027926;28;20029;-71
2023/08/07 00:35:29;;;;;;;7.80;1.10;;;13.80;99.90;;;;;;5024903;28;20061;-73
2023/08/07 00:37:54;;;;;;;5.50;1.10;;;13.80;99.90;;;;;;5027806;28;20040;-70
2023/08/07 00:40:20;;;;;;;7.63;1.30;;;13.80;99.90;;;;;;5026676;28;20512;-73
2023/08/07 00:42:46;;;;;;;7.72;0.80;;;13.90;99.90;;;;;;5026171;28;20030;-71
2023/08/07 00:45:11;;;;;;;9.52;1.63;;;13.80;99.90;;;;;;5027195;28;20034;-70
2023/08/07 00:47:40;;;;;;;3.88;0.52;;;13.90;99.90;;;;;;5025115;28;20460;-71
2023/08/07 00:50:07;;;;;;;6.85;1.50;;;13.80;99.90;;;;;;5028245;28;20033;-72
2023/08/07 00:52:33;;;;;;;3.60;0.57;;;13.80;99.90;;;;;;5010954;28;20549;-72
2023/08/07 00:54:58;;;;;;;9.40;1.73;;;13.70;99.90;;;;;;5018603;28;20046;-72
2023/08/07 00:57:25;;;;;;;7.97;1.10;;;13.70;99.90;;;;;;5029435;28;20044;-70
2023/08/07 00:59:51;;;;;;;9.95;1.58;;;13.60;99.90;;;;;;5010385;28;20042;-71
2023/08/07 01:02:17;;;;;;;7.18;1.02;;;13.70;99.90;;;;;;5022365;28;20087;-70
2023/08/07 01:04:42;;;;;;;5.13;0.98;;;13.60;99.90;;;;;;5029462;28;20456;-71
2023/08/07 01:07:08;;;;;;;2.00;0.88;;;13.60;99.90;;;;;;5029809;28;20447;-70
2023/08/07 01:09:34;;;;;;;6.93;1.10;;;13.60;99.90;;;;;;5026608;28;20052;-70
2023/08/07 01:12:08;;;;;;;5.93;1.10;;;13.60;99.90;;;;;;5011498;28;20136;-71
2023/08/07 01:14:55;;;;;;;8.18;1.27;;;13.60;99.90;;;;;;5008929;28;20038;-71
2023/08/07 01:17:23;;;;;;;7.20;1.40;;;13.60;99.90;;;;;;4997407;28;20056;-71
2023/08/07 01:19:55;;;;;;;9.75;1.90;;;13.60;99.90;;;;;;5031170;28;20057;-72
2023/08/07 01:22:21;;;;;;;9.52;1.30;;;13.70;99.90;;;;;;4989176;28;20461;-72
2023/08/07 01:24:49;;;;;;;8.02;1.35;;;13.70;99.90;;;;;;5013561;28;20125;-71
2023/08/07 01:27:17;;;;;;;10.35;1.63;;;13.70;99.90;;;;;;5029481;28;20050;-72
2023/08/07 01:30:04;;;;;;;10.35;2.22;;;13.80;99.90;;;;;;5030678;28;20083;-72
2023/08/07 01:33:04;;;;;;;7.35;1.52;;;13.80;99.90;;;;;;5028413;28;20350;-72
2023/08/07 01:35:34;;;;;;;7.85;0.98;;;13.80;99.90;;;;;;5024372;28;20191;-72
2023/08/07 01:38:02;;;;;;;5.18;1.27;;;13.80;99.90;;;;;;5031080;28;20113;-71
2023/08/07 01:40:28;;;;;;;3.78;0.98;;;13.70;99.90;;;;;;5029894;28;20120;-72
2023/08/07 01:42:54;;;;;;;13.55;1.58;;;13.70;99.90;;;;;;5031077;28;20041;-70
2023/08/07 01:45:28;;;;;;;5.78;0.80;;;13.60;99.90;;;;;;5030085;28;20042;-71
2023/08/07 01:47:53;;;;;;;4.57;1.08;;;13.60;99.90;;;;;;5030759;28;20033;-71
2023/08/07 01:50:20;;;;;;;6.68;0.88;;;13.60;99.90;;;;;;5028249;28;20028;-72
2023/08/07 01:52:46;;;;;;;4.03;0.95;;;13.60;99.90;;;;;;5028998;28;20056;-73
2023/08/07 01:55:13;;;;;;;6.82;1.30;;;13.60;99.90;;;;;;5028808;28;20033;-71
2023/08/07 01:57:39;;;;;;;9.80;1.60;;;13.50;99.90;;;;;;5026556;28;20045;-72
2023/08/07 02:00:05;;;;;;;14.98;1.13;;;13.50;99.90;;;;;;5009052;28;20421;-72
2023/08/07 02:02:31;;;;;;;10.70;1.08;;;13.50;99.90;;;;;;5008110;28;20057;-72
2023/08/07 02:04:56;;;;;;;9.90;2.25;;;13.50;99.90;;;;;;5022371;28;20037;-73
2023/08/07 02:07:22;;;;;;;6.07;1.52;;;13.50;99.90;;;;;;5027590;28;20042;-72
2023/08/07 02:09:47;;;;;;;2.58;0.80;;;13.50;99.90;;;;;;5028565;28;20043;-72
2023/08/07 02:12:13;;;;;;;8.57;1.73;;;13.50;99.90;;;;;;5030196;28;20072;-72
2023/08/07 02:14:38;;;;;;;8.40;0.75;;;13.50;99.90;;;;;;5027609;28;20045;-74
2023/08/07 02:17:04;;;;;;;8.82;1.27;;;13.60;99.90;;;;;;5028521;28;20061;-75
2023/08/07 02:19:30;;;;;;;10.32;1.00;;;13.60;99.90;;;;;;5028858;28;20042;-72
2023/08/07 02:21:56;;;;;;;3.28;1.17;;;13.60;99.90;;;;;;5030235;28;20490;-71
2023/08/07 02:24:21;;;;;;;9.98;1.88;;;13.60;99.90;;;;;;5027252;28;20108;-72
2023/08/07 02:26:47;;;;;;;7.65;1.10;;;13.60;99.90;;;;;;5029874;28;20025;-71
2023/08/07 02:29:12;;;;;;;15.65;1.85;;;13.70;99.90;;;;;;5029829;28;20030;-71
2023/08/07 02:31:38;;;;;;;4.38;0.65;;;13.60;99.90;;;;;;5027608;28;20026;-72
2023/08/07 02:34:03;;;;;;;5.40;1.02;;;13.60;99.90;;;;;;5029435;28;20034;-74
2023/08/07 02:36:29;;;;;;;7.70;1.08;;;13.70;99.90;;;;;;5029000;28;20033;-72
2023/08/07 02:38:54;;;;;;;10.45;1.25;;;13.60;99.90;;;;;;5023836;28;20029;-73
2023/08/07 02:41:20;;;;;;;11.30;1.67;;;13.60;99.90;;;;;;5027111;28;20048;-71
2023/08/07 02:43:46;;;;;;;7.88;1.80;;;13.60;99.90;;;;;;5029390;28;20029;-72
2023/08/07 02:46:12;;;;;;;10.30;1.08;;;13.70;99.90;;;;;;5028233;28;20112;-71
2023/08/07 02:48:39;;;;;;;15.95;1.55;;;13.70;99.90;;;;;;5026817;28;20113;-72
2023/08/07 02:51:04;;;;;;;6.68;1.08;;;13.80;99.90;;;;;;5027838;28;20041;-73
2023/08/07 02:53:30;;;;;;;6.35;1.30;;;13.80;99.90;;;;;;5026559;28;20087;-72
2023/08/07 02:55:55;;;;;;;3.22;0.88;;;13.80;99.90;;;;;;5027710;28;20501;-71
2023/08/07 02:58:21;;;;;;;9.73;1.15;;;13.80;99.90;;;;;;5022483;28;20512;-72
2023/08/07 03:00:46;;;;;;;8.57;1.20;;;13.80;99.90;;;;;;5027636;28;20482;-71
2023/08/07 03:03:12;;;;;;;10.52;2.17;;;13.80;99.90;;;;;;5028829;28;20103;-71
2023/08/07 03:05:37;;;;;;;9.38;1.30;;;13.90;99.90;;;;;;5027542;28;20048;-73
2023/08/07 03:08:03;;;;;;;9.13;1.45;;;13.80;99.90;;;;;;5028136;28;20030;-71
2023/08/07 03:10:29;;;;;;;9.15;1.13;;;13.90;99.90;;;;;;5026717;28;20118;-71
2023/08/07 03:12:54;;;;;;;7.93;0.98;;;13.90;99.90;;;;;;5026298;28;20036;-72
2023/08/07 03:15:20;;;;;;;8.55;1.50;;;13.90;99.90;;;;;;5026869;28;20076;-72
2023/08/07 03:17:46;;;;;;;6.25;1.00;;;13.90;99.90;;;;;;5028449;28;20040;-72
2023/08/07 03:20:12;;;;;;;4.93;0.90;;;13.90;99.90;;;;;;5027045;28;20037;-72
2023/08/07 03:22:37;;;;;;;14.82;1.30;;;13.90;99.90;;;;;;5027283;28;20037;-72
2023/08/07 03:25:03;;;;;;;12.18;0.95;;;13.90;99.90;;;;;;5028371;28;20122;-72
2023/08/07 03:27:28;;;;;;;7.20;0.80;;;14.00;99.90;;;;;;5027200;28;20029;-72
2023/08/07 03:29:54;;;;;;;8.63;0.93;;;14.00;99.90;;;;;;5026774;28;20416;-72
2023/08/07 03:32:20;;;;;;;4.10;0.80;;;13.90;99.90;;;;;;5027462;28;20124;-72
2023/08/07 03:34:45;;;;;;;5.15;0.57;;;13.90;99.90;;;;;;5027832;28;20033;-72
2023/08/07 03:37:11;;;;;;;3.72;0.68;;;14.00;99.90;;;;;;5026594;28;20481;-72
2023/08/07 03:39:36;;;;;;;10.07;0.90;;;13.90;99.90;;;;;;5025583;28;20050;-73
2023/08/07 03:42:02;;;;;;;7.13;1.27;;;13.90;99.90;;;;;;5026591;28;20037;-72
2023/08/07 03:44:28;;;;;;;3.80;0.77;;;13.90;99.90;;;;;;5025362;28;20117;-72
2023/08/07 03:46:56;;;;;;;4.25;1.27;;;13.90;99.90;;;;;;5028067;28;20043;-73
2023/08/07 03:49:22;;;;;;;5.72;0.75;;;13.80;99.90;;;;;;5026918;28;20044;-74
2023/08/07 03:51:49;;;;;;;5.28;0.65;;;13.80;99.90;;;;;;5026254;28;20036;-71
2023/08/07 03:54:14;;;;;;;5.72;0.90;;;13.80;99.90;;;;;;5027560;28;20037;-71
2023/08/07 03:56:40;;;;;;;13.55;1.23;;;13.80;99.90;;;;;;5025535;28;20462;-71
2023/08/07 03:59:06;;;;;;;8.85;0.80;;;13.80;99.90;;;;;;5022799;28;20033;-71
2023/08/07 04:01:32;;;;;;;5.95;1.77;;;13.80;99.90;;;;;;5026711;28;20038;-72
2023/08/07 04:03:57;;;;;;;3.25;0.77;;;13.80;99.90;;;;;;5027582;28;20033;-73
2023/08/07 04:06:23;;;;;;;6.80;1.30;;;13.80;99.90;;;;;;5026570;28;20095;-73
2023/08/07 04:08:49;;;;;;;5.05;1.10;;;13.80;99.90;;;;;;5025976;28;20382;-71
2023/08/07 04:11:14;;;;;;;8.05;1.35;;;13.80;99.90;;;;;;5025042;28;20076;-71
2023/08/07 04:13:40;;;;;;;10.80;1.10;;;13.80;99.90;;;;;;5026701;28;20034;-70
2023/08/07 04:16:06;;;;;;;12.73;1.60;;;13.70;99.90;;;;;;5026060;28;20036;-71
2023/08/07 04:18:32;;;;;;;9.48;1.15;;;13.70;99.90;;;;;;5025271;28;20029;-72
2023/08/07 04:20:58;;;;;;;4.97;0.73;;;13.80;99.90;;;;;;5025837;28;20079;-74
2023/08/07 04:23:24;;;;;;;8.90;1.40;;;13.80;99.90;;;;;;5024923;28;20120;-71
2023/08/07 04:25:53;;;;;;;8.07;1.02;;;13.80;99.90;;;;;;5026770;28;20481;-73
2023/08/07 04:28:18;;;;;;;9.07;1.45;;;13.90;99.90;;;;;;5025420;28;20022;-71
2023/08/07 04:30:45;;;;;;;4.75;0.75;;;13.90;99.90;;;;;;5025916;28;20038;-72
2023/08/07 04:33:11;;;;;;;8.77;1.55;;;13.80;99.90;;;;;;5026023;28;20084;-72
2023/08/07 04:35:36;;;;;;;5.53;1.30;;;13.90;99.90;;;;;;5024733;28;20440;-72
2023/08/07 04:38:02;;;;;;;8.10;1.85;;;13.90;99.90;;;;;;5025751;28;20040;-71
2023/08/07 04:40:28;;;;;;;4.25;0.98;;;13.90;99.90;;;;;;5026069;28;20037;-71
2023/08/07 04:42:54;;;;;;;10.05;1.50;;;14.00;99.90;;;;;;5026052;28;20128;-71
2023/08/07 04:45:20;;;;;;;8.38;1.20;;;14.00;99.90;;;;;;5024637;28;20041;-71
2023/08/07 04:47:46;;;;;;;10.07;1.20;;;14.00;99.90;;;;;;5026684;28;20781;-72
2023/08/07 04:50:11;;;;;;;10.88;1.27;;;14.00;99.90;;;;;;5026917;28;20494;-72
2023/08/07 04:52:37;;;;;;;7.78;1.13;;;14.00;99.90;;;;;;5020161;28;20046;-72
2023/08/07 04:55:03;;;;;;;6.90;1.63;;;14.10;99.90;;;;;;5024577;28;20040;-72
2023/08/07 04:57:28;;;;;;;5.47;1.20;;;14.10;99.90;;;;;;5023185;28;20060;-73
2023/08/07 04:59:54;;;;;;;5.47;1.02;;;14.10;99.90;;;;;;5023445;28;20112;-73
2023/08/07 05:02:20;;;;;;;7.70;0.95;;;14.20;99.90;;;;;;5022207;28;20485;-73
2023/08/07 05:04:45;;;;;;;4.50;1.17;;;14.20;99.90;;;;;;5016035;28;20087;-72
2023/08/07 05:07:12;;;;;;;8.30;2.08;;;14.20;99.90;;;;;;5024573;28;20608;-73
2023/08/07 05:09:38;;;;;;;5.50;1.10;;;14.20;99.90;;;;;;5021473;28;20038;-72
2023/08/07 05:12:05;;;;;;;8.77;1.50;;;14.30;99.90;;;;;;5026077;28;20041;-71
2023/08/07 05:14:30;;;;;;;6.03;1.10;;;14.30;99.90;;;;;;5024726;28;20072;-71
2023/08/07 05:16:56;;;;;;;8.57;1.08;;;14.30;99.90;;;;;;5025741;28;20552;-71
2023/08/07 05:19:21;;;;;;;11.25;1.17;;;14.40;99.90;;;;;;5024379;28;20076;-72
2023/08/07 05:21:50;;;;;;;8.77;1.45;;;14.40;99.90;;;;;;5025810;28;20534;-72
2023/08/07 05:24:16;;;;;;;7.15;1.35;;;14.50;99.90;;;;;;5020184;28;20038;-72
2023/08/07 05:26:42;;;;;;;11.40;1.33;;;14.50;99.90;;;;;;5023809;28;20093;-72
2023/08/07 05:29:07;;;;;;;12.50;1.92;;;14.50;99.90;;;;;;5024619;28;20481;-72
2023/08/07 05:31:34;;;;;;;7.50;0.93;;;14.50;99.90;;;;;;5023170;28;20444;-72
2023/08/07 05:34:00;;;;;;;11.20;1.52;;;14.50;99.90;;;;;;5025388;28;20041;-73
2023/08/07 05:36:25;;;;;;;5.82;0.85;;;14.60;99.90;;;;;;5025316;28;20048;-73
2023/08/07 05:38:51;;;;;;;11.27;1.15;;;14.60;99.90;;;;;;5027596;28;20022;-71
2023/08/07 05:41:16;;;;;;;9.07;0.93;;;14.50;99.90;;;;;;5026244;28;20026;-71
2023/08/07 05:43:42;;;;;;;10.43;1.08;;;14.60;99.90;;;;;;5022493;28;20120;-71
2023/08/07 05:46:08;;;;;;;8.93;1.65;;;14.60;99.90;;;;;;5027715;28;20022;-73
2023/08/07 05:48:33;;;;;;;10.80;1.98;;;14.60;99.90;;;;;;5024236;28;20432;-71
2023/08/07 05:50:59;;;;;;;6.82;0.90;;;14.60;99.90;;;;;;5028962;28;20350;-71
2023/08/07 05:53:24;;;;;;;9.82;1.85;;;14.70;99.90;;;;;;5028938;28;20064;-71
2023/08/07 05:55:50;;;;;;;7.45;1.25;;;14.70;99.90;;;;;;5028254;28;20041;-73
2023/08/07 05:58:16;;;;;;;7.78;1.00;;;14.70;99.90;;;;;;5026262;28;20037;-72
2023/08/07 06:00:41;;;;;;;12.27;1.15;;;14.80;99.90;;;;;;5021748;28;20034;-71
2023/08/07 06:03:07;;;;;;;6.65;1.00;;;14.80;99.90;;;;;;5013913;28;20164;-72
2023/08/07 06:05:34;;;;;;;6.10;1.55;;;14.80;99.90;;;;;;5011395;28;20054;-73
2023/08/07 06:08:00;;;;;;;13.88;1.83;;;14.80;99.90;;;;;;5024563;28;20480;-72
2023/08/07 06:10:26;;;;;;;2.53;0.55;;;14.80;99.90;;;;;;5026686;28;20137;-72
2023/08/07 06:12:55;;;;;;;15.80;1.35;;;14.80;99.90;;;;;;5016975;28;20145;-71
2023/08/07 06:15:24;;;;;;;10.77;0.95;;;14.80;99.90;;;;;;5024516;28;20045;-71
2023/08/07 06:17:51;;;;;;;4.38;0.80;;;14.70;99.90;;;;;;5022425;28;20033;-71
2023/08/07 06:20:17;;;;;;;7.10;1.13;;;14.70;99.90;;;;;;5017102;28;20485;-74
2023/08/07 06:22:42;;;;;;;9.57;1.98;;;14.70;99.90;;;;;;5016807;28;20040;-72
2023/08/07 06:25:08;;;;;;;5.00;1.25;;;14.70;99.90;;;;;;5017895;28;20030;-71
2023/08/07 06:27:34;;;;;;;5.82;1.75;;;14.80;99.90;;;;;;5021352;28;20512;-72
2023/08/07 06:30:00;;;;;;;6.70;1.15;;;14.80;99.90;;;;;;5026221;28;20163;-72
2023/08/07 06:32:26;;;;;;;11.35;1.00;;;15.00;99.90;;;;;;5026186;28;20042;-71
2023/08/07 06:34:52;;;;;;;6.32;1.88;;;15.10;99.90;;;;;;5026891;28;20037;-72
2023/08/07 06:37:18;;;;;;;3.92;0.80;;;15.20;99.90;;;;;;5026675;28;20118;-74
2023/08/07 06:39:43;;;;;;;4.50;1.35;;;15.30;99.90;;;;;;5027152;28;20461;-72
2023/08/07 06:42:09;;;;;;;7.80;1.98;;;15.60;99.90;;;;;;5027159;28;20370;-73
2023/08/07 06:44:34;;;;;;;3.67;0.90;;;16.00;99.90;;;;;;5027752;28;20079;-73
2023/08/07 06:47:00;;;;;;;6.25;1.10;;;16.20;99.90;;;;;;5026763;28;20025;-74
2023/08/07 06:49:26;;;;;;;7.82;1.05;;;16.40;99.90;;;;;;5027615;28;20040;-72
2023/08/07 06:51:51;;;;;;;4.95;0.90;;;17.00;99.90;;;;;;5027530;28;20076;-73
2023/08/07 06:54:17;;;;;;;4.07;0.55;;;17.40;99.90;;;;;;5027286;28;20049;-73
2023/08/07 06:56:43;;;;;;;4.95;0.68;;;17.40;99.90;;;;;;5026840;28;20038;-72
2023/08/07 06:59:09;;;;;;;7.20;1.00;;;17.40;99.90;;;;;;5025205;28;20031;-73
2023/08/07 07:01:35;;;;;;;3.03;0.73;;;17.10;99.90;;;;;;5028217;28;20038;-73
2023/08/07 07:04:00;;;;;;;3.47;1.02;;;16.90;99.90;;;;;;5028394;28;20030;-72
2023/08/07 07:06:26;;;;;;;5.25;0.80;;;16.60;99.90;;;;;;5027884;28;20061;-71
2023/08/07 07:08:55;;;;;;;14.93;2.53;;;16.40;99.90;;;;;;5028284;28;20030;-72
2023/08/07 07:11:24;;;;;;;2.08;0.73;;;16.30;99.90;;;;;;5024318;28;20029;-72
2023/08/07 07:13:50;;;;;;;9.40;1.15;;;16.10;99.90;;;;;;5026692;28;20037;-71
2023/08/07 07:16:21;;;;;;;5.70;0.80;;;16.00;99.90;;;;;;5028488;28;20044;-71
2023/08/07 07:18:50;;;;;;;;;;;16.00;99.90;;;;;;5026851;28;20449;-73
2023/08/07 07:21:16;;;;;;;9.45;1.00;;;17.00;99.90;;;;;;5026779;28;19916;-71
2023/08/07 07:23:41;;;;;;;7.00;0.90;;;18.40;99.90;;;;;;5026988;28;20033;-73
2023/08/07 07:26:07;;;;;;;7.75;1.58;;;19.70;99.90;;;;;;5027225;28;20025;-73
2023/08/07 07:28:32;;;;;;;5.65;0.85;;;20.80;99.90;;;;;;5025606;28;20041;-73
2023/08/07 07:30:58;;;;;;;8.10;1.55;;;21.20;99.90;;;;;;5028426;28;20022;-73
2023/08/07 07:33:23;;;;;;;8.55;0.90;;;21.70;99.90;;;;;;5025149;28;20063;-73
2023/08/07 07:35:49;;;;;;;4.10;0.88;;;21.90;99.90;;;;;;5026716;28;20048;-72
2023/08/07 07:38:16;;;;;;;10.30;1.52;;;22.30;99.90;;;;;;5026298;28;20107;-71
2023/08/07 07:40:41;;;;;;;4.68;0.98;;;22.10;99.90;;;;;;5026757;28;20124;-70
2023/08/07 07:43:07;;;;;;;10.38;1.85;;;22.00;99.90;;;;;;5029224;28;20129;-72
2023/08/07 07:45:35;;;;;;;6.15;1.00;;;21.50;99.90;;;;;;5025831;28;20470;-73
2023/08/07 07:48:06;;;;;;;7.15;0.90;;;21.10;99.90;;;;;;5025933;28;20043;-72
2023/08/07 07:50:31;;;;;;;;;;;20.40;99.90;;;;;;5025978;28;20031;-73
2023/08/07 07:52:57;;;;;;;6.38;0.73;;;19.80;99.90;;;;;;5026365;28;20289;-72
2023/08/07 07:55:22;;;;;;;2.78;0.77;;;19.40;99.90;;;;;;5026506;28;20049;-72
2023/08/07 07:57:48;;;;;;;5.20;1.10;;;19.10;99.90;;;;;;5026107;28;20536;-72
2023/08/07 08:00:14;;;;;;;7.32;1.67;;;18.90;99.90;;;;;;5025927;28;20049;-71
2023/08/07 08:02:40;;;;;;;4.85;0.63;;;18.80;99.90;;;;;;5024872;28;20485;-73
2023/08/07 08:05:07;;;;;;;6.90;0.80;;;18.70;99.90;;;;;;5027260;28;20034;-72
2023/08/07 08:07:34;;;;;;;3.90;1.05;;;18.50;99.90;;;;;;5026649;28;20144;-73
2023/08/07 08:10:00;;;;;;;1.55;0.50;;;18.50;99.90;;;;;;5024522;28;20025;-72
2023/08/07 08:12:26;;;;;;;4.30;0.65;;;18.50;99.90;;;;;;5022004;28;20501;-72
2023/08/07 08:14:52;;;;;;;2.60;0.95;;;18.50;99.90;;;;;;5025857;28;20059;-72
2023/08/07 08:17:17;;;;;;;6.45;0.80;;;18.60;99.90;;;;;;5027023;28;20410;-75
2023/08/07 08:19:43;;;;;;;5.15;0.85;;;18.60;99.90;;;;;;5025571;28;20041;-72
2023/08/07 08:22:09;;;;;;;4.60;0.85;;;18.50;99.90;;;;;;5025972;28;20033;-72
2023/08/07 08:24:34;;;;;;;9.18;1.08;;;18.50;99.90;;;;;;5026109;28;20052;-72
2023/08/07 08:27:00;;;;;;;5.32;1.38;;;18.50;99.90;;;;;;5027599;28;20128;-72
2023/08/07 08:29:27;;;;;;;3.58;0.70;;;18.50;99.90;;;;;;5024803;28;20029;-73
2023/08/07 08:31:54;;;;;;;4.47;1.23;;;18.40;99.90;;;;;;5027405;28;20381;-72
2023/08/07 08:34:21;;;;;;;7.25;1.42;;;18.40;99.90;;;;;;5024499;28;20036;-73
2023/08/07 08:36:47;;;;;;;8.63;0.93;;;18.50;99.90;;;;;;5027413;28;20041;-71
2023/08/07 08:39:12;;;;;;;10.18;1.52;;;18.60;99.90;;;;;;5027077;28;20025;-71
2023/08/07 08:41:40;;;;;;;8.88;0.68;;;18.50;99.90;;;;;;5026318;28;20041;-73
2023/08/07 08:44:07;;;;;;;8.50;0.73;;;18.60;99.90;;;;;;5025441;28;20042;-71
2023/08/07 08:46:34;;;;;;;4.32;0.77;;;18.90;99.90;;;;;;5024640;28;20065;-72
2023/08/07 08:49:01;;;;;;;2.63;0.73;;;19.10;99.90;;;;;;5026639;28;20558;-72
2023/08/07 08:51:27;;;;;;;11.18;1.67;;;18.90;99.90;;;;;;5025966;28;20069;-72
2023/08/07 08:53:56;;;;;;;6.05;1.42;;;18.70;99.90;;;;;;5025472;28;20049;-70
2023/08/07 08:58:57;;;;;;;4.88;1.50;;;17.90;99.90;;;;;;5735982;22;20041;-72
2023/08/07 09:01:24;;;;;;;3.72;0.70;;;17.80;99.90;;;;;;5045509;28;20070;-72
2023/08/07 09:03:52;;;;;;;13.02;1.63;;;17.70;99.90;;;;;;5038864;28;20052;-73
2023/08/07 09:06:17;;;;;;;4.10;0.73;;;17.50;99.90;;;;;;5034670;28;20040;-73
2023/08/07 09:08:43;;;;;;;7.38;1.77;;;17.30;99.90;;;;;;5008580;28;20435;-74
2023/08/07 09:11:11;;;;;;;4.13;0.80;;;17.00;99.90;;;;;;5008983;28;20419;-73
2023/08/07 09:13:38;;;;;;;6.03;2.08;;;16.90;99.90;;;;;;5029861;28;20041;-73
2023/08/07 09:16:07;;;;;;;5.13;0.90;;;16.80;99.90;;;;;;5030406;28;20068;-72
2023/08/07 09:18:33;;;;;;;3.78;0.90;;;16.70;99.90;;;;;;5030067;28;20042;-74
2023/08/07 09:20:59;;;;;;;3.90;0.70;;;16.60;99.90;;;;;;5013049;28;20044;-72
2023/08/07 09:23:25;;;;;;;5.40;1.08;;;16.50;99.90;;;;;;5012217;28;20112;-72
2023/08/07 09:26:04;;;;;;;3.63;0.60;;;16.70;99.90;;;;;;5012527;28;20041;-73
2023/08/07 09:28:31;;;;;;;5.07;0.90;;;16.80;99.90;;;;;;5024706;28;20029;-72
2023/08/07 09:30:58;;;;;;;3.95;0.88;;;17.00;99.90;;;;;;5030528;28;20172;-73
2023/08/07 09:33:26;;;;;;;6.25;0.73;;;17.20;99.90;;;;;;5011797;28;20463;-72
2023/08/07 09:35:52;;;;;;;5.60;1.27;;;17.40;99.90;;;;;;5030225;28;20033;-73
2023/08/07 09:38:17;;;;;;;4.82;0.68;;;17.50;99.90;;;;;;5022311;28;20040;-73
2023/08/07 09:40:43;;;;;;;4.18;0.60;;;17.80;99.90;;;;;;5011636;28;20033;-73
2023/08/07 09:43:10;;;;;;;9.13;1.20;;;18.20;99.90;;;;;;5012216;28;20039;-73
2023/08/07 09:45:39;;;;;;;2.88;0.57;;;18.60;99.90;;;;;;5029122;28;20044;-72
2023/08/07 09:48:06;;;;;;;6.72;0.82;;;18.90;99.90;;;;;;5030184;28;20052;-73
2023/08/07 09:50:32;;;;;;;3.20;0.65;;;19.00;99.90;;;;;;5028832;28;20204;-72
2023/08/07 09:52:58;;;;;;;4.65;0.52;;;19.00;99.90;;;;;;5030190;28;20041;-73
2023/08/07 09:55:24;;;;;;;8.18;1.00;;;18.80;99.90;;;;;;5029024;28;20508;-72
2023/08/07 09:57:51;;;;;;;3.83;0.40;;;18.80;99.90;;;;;;5029304;28;20152;-72
2023/08/07 10:00:19;;;;;;;3.13;0.60;;;18.50;99.90;;;;;;5011594;28;20158;-73
2023/08/07 10:02:47;;;;;;;2.33;0.75;;;18.40;99.90;;;;;;5029455;28;20033;-72
2023/08/07 10:05:13;;;;;;;3.28;0.65;;;18.20;99.90;;;;;;5029818;28;20033;-72
2023/08/07 10:07:40;;;;;;;6.60;0.93;;;18.10;99.90;;;;;;5028572;28;20438;-72
2023/08/07 10:10:07;;;;;;;3.70;0.73;;;18.00;99.90;;;;;;5009800;28;20713;-73
2023/08/07 10:12:32;;;;;;;5.80;0.52;;;17.90;99.90;;;;;;5028960;28;20044;-72
2023/08/07 10:14:59;;;;;;;5.50;0.63;;;17.90;99.90;;;;;;5029490;28;20037;-73
2023/08/07 10:17:25;;;;;;;2.75;0.50;;;17.70;99.90;;;;;;5010837;28;20037;-73
2023/08/07 10:19:51;;;;;;;3.42;0.70;;;17.70;99.90;;;;;;5012137;28;20496;-72
2023/08/07 10:22:19;;;;;;;5.85;1.38;;;17.70;99.90;;;;;;5029247;28;20428;-72
2023/08/07 10:24:48;;;;;;;6.32;1.13;;;17.90;99.90;;;;;;5019811;28;20037;-73
2023/08/07 10:27:16;;;;;;;2.60;0.60;;;18.20;99.90;;;;;;5027144;28;20037;-71
2023/08/07 10:29:43;;;;;;;6.22;0.60;;;18.40;99.90;;;;;;5027676;28;20034;-71
2023/08/07 10:32:10;;;;;;;6.45;0.82;;;18.60;99.90;;;;;;5011412;28;20045;-71
2023/08/07 10:34:37;;;;;;;4.28;0.55;;;18.70;99.90;;;;;;5010795;28;20033;-71
2023/08/07 10:37:06;;;;;;;2.65;0.43;;;18.70;99.90;;;;;;5029400;28;20038;-71
2023/08/07 10:39:32;;;;;;;4.70;0.50;;;18.70;99.90;;;;;;5027927;28;20137;-73
2023/08/07 10:41:58;;;;;;;8.25;0.93;;;18.70;99.90;;;;;;5029498;28;20044;-71
2023/08/07 10:44:31;;;;;;;11.02;1.05;;;18.70;99.90;;;;;;5011108;28;20037;-74
2023/08/07 10:46:57;;;;;;;4.15;1.25;;;18.60;99.90;;;;;;5031238;28;20481;-72
2023/08/07 10:49:34;;;;;;;4.38;0.82;;;18.70;99.90;;;;;;5029492;28;20041;-71
2023/08/07 10:52:11;;;;;;;2.47;0.50;;;18.90;99.90;;;;;;5030012;28;20080;-71
2023/08/07 10:54:44;;;;;;;4.22;0.50;;;19.10;99.90;;;;;;5027819;28;20045;-72
2023/08/07 10:57:13;;;;;;;2.33;0.68;;;19.20;99.90;;;;;;5010927;28;20531;-72
2023/08/07 10:59:43;;;;;;;4.97;1.30;;;19.40;99.90;;;;;;5009872;28;20041;-72
2023/08/07 11:02:12;;;;;;;4.00;0.50;;;19.50;99.90;;;;;;5010864;28;20033;-71
2023/08/07 11:04:38;;;;;;;5.07;1.38;;;19.30;99.90;;;;;;5027609;28;20033;-72
2023/08/07 11:07:05;;;;;;;2.35;0.70;;;19.30;99.90;;;;;;5028784;28;20197;-72
2023/08/07 11:09:30;;;;;;;11.68;1.20;;;19.40;99.90;;;;;;5025941;28;20038;-73
2023/08/07 11:11:56;;;;;;;9.40;0.93;;;19.50;99.90;;;;;;5028576;28;20071;-71
2023/08/07 11:14:21;;;;;;;5.57;1.50;;;19.50;99.90;;;;;;5027637;28;20041;-72
2023/08/07 11:16:48;;;;;;;15.57;1.00;;;19.40;99.90;;;;;;5028276;28;20029;-72
2023/08/07 11:19:16;;;;;;;2.95;0.63;;;19.50;99.90;;;;;;5010813;28;20034;-73
2023/08/07 11:21:42;;;;;;;2.47;0.30;;;19.70;99.90;;;;;;5019663;28;20026;-72
2023/08/07 11:24:08;;;;;;;1.85;0.57;;;19.90;99.90;;;;;;5010611;28;20169;-73
2023/08/07 11:26:34;;;;;;;2.97;0.60;;;19.90;99.90;;;;;;5027315;28;20048;-72
2023/08/07 11:28:59;;;;;;;4.00;0.85;;;19.90;99.90;;;;;;5028260;28;20120;-71
2023/08/07 11:31:27;;;;;;;4.65;0.68;;;19.70;99.90;;;;;;5009261;28;20093;-71
2023/08/07 11:33:57;;;;;;;3.55;0.63;;;19.50;99.90;;;;;;5027840;28;20037;-71
2023/08/07 11:36:24;;;;;;;1.92;0.80;;;19.20;99.90;;;;;;5009417;28;20048;-72
2023/08/07 11:38:50;;;;;;;3.85;0.75;;;19.00;99.90;;;;;;5028078;28;20041;-71
2023/08/07 11:41:17;;;;;;;5.53;0.85;;;18.90;99.90;;;;;;5028145;28;20024;-71
2023/08/07 11:43:43;;;;;;;4.53;0.82;;;19.10;99.90;;;;;;5009272;28;20447;-73
2023/08/07 11:46:14;;;;;;;4.70;0.50;;;19.40;99.90;;;;;;5027766;28;20036;-71
2023/08/07 11:48:41;;;;;;;5.05;1.65;;;19.80;99.90;;;;;;5009026;28;20036;-71
2023/08/07 11:51:07;;;;;;;1.98;0.40;;;19.80;99.90;;;;;;5028074;28;20067;-75
2023/08/07 11:53:38;;;;;;;1.25;0.55;;;19.70;99.90;;;;;;5008792;28;20033;-73
2023/08/07 11:56:17;;;;;;;1.73;0.35;;;19.80;99.90;;;;;;5027763;28;20048;-73
2023/08/07 11:58:47;;;;;;;5.28;0.60;;;19.70;99.90;;;;;;5001096;28;20037;-73
2023/08/07 12:01:15;;;;;;;3.83;0.77;;;19.60;99.90;;;;;;4997079;28;20061;-72
2023/08/07 12:03:54;;;;;;;4.05;0.55;;;19.50;99.90;;;;;;5011006;28;20041;-72
2023/08/07 12:06:20;;;;;;;3.75;0.60;;;19.40;99.90;;;;;;5001541;28;20033;-72
2023/08/07 12:08:48;;;;;;;2.78;0.73;;;19.40;99.90;;;;;;5027505;28;20136;-71
2023/08/07 12:11:13;;;;;;;2.65;0.60;;;19.20;99.90;;;;;;5009234;28;20045;-73
2023/08/07 12:13:41;;;;;;;2.92;0.40;;;19.00;99.90;;;;;;5008743;28;20060;-71
2023/08/07 12:16:08;;;;;;;3.35;0.50;;;19.10;99.90;;;;;;5018941;28;20049;-73
2023/08/07 12:18:35;;;;;;;3.42;0.82;;;19.30;99.90;;;;;;5004377;28;20570;-73
2023/08/07 12:21:06;;;;;;;1.38;0.50;;;19.30;99.90;;;;;;5009770;28;20155;-72
2023/08/07 12:23:36;;;;;;;4.75;0.90;;;19.30;99.90;;;;;;5025994;28;20053;-73
2023/08/07 12:26:03;;;;;;;2.63;0.68;;;19.50;99.90;;;;;;5027296;28;20453;-71
2023/08/07 12:28:29;;;;;;;4.00;0.75;;;19.50;99.90;;;;;;5026269;28;20041;-74
2023/08/07 12:30:56;;;;;;;2.67;0.40;;;19.60;99.90;;;;;;5009824;28;20087;-72
2023/08/07 12:33:21;;;;;;;3.75;0.30;;;19.80;99.90;;;;;;5026188;28;20037;-73
2023/08/07 12:35:47;;;;;;;3.35;0.73;;;19.90;99.90;;;;;;5023671;28;20370;-72
2023/08/07 12:38:17;;;;;;;5.47;0.50;;;19.80;99.90;;;;;;5026799;28;20077;-71
2023/08/07 12:40:42;;;;;;;5.68;0.85;;;19.70;99.90;;;;;;5026316;28;20037;-72
2023/08/07 12:43:08;;;;;;;4.68;0.60;;;19.70;99.90;;;;;;5009543;28;20025;-71
2023/08/07 12:45:34;;;;;;;5.00;0.60;;;19.80;99.90;;;;;;5008746;28;20045;-74